sensor_id;sensor_type;location;lat;lon;timestamp;P1;durP1;ratioP1;P2;durP2;ratioP2
2538;SDS011;1280;49.760;9.664;2023-07-13T00:00:08;9.53;;;1.93;;
2538;SDS011;1280;49.760;9.664;2023-07-13T00:02:44;4.20;;;1.60;;
2538;SDS011;1280;49.760;9.664;2023-07-13T00:05:13;5.70;;;2.17;;
2538;SDS011;1280;49.760;9.664;2023-07-13T00:07:49;8.60;;;1.97;;
2538;SDS011;1280;49.760;9.664;2023-07-13T00:10:21;5.27;;;2.03;;
2538;SDS011;1280;49.760;9.664;2023-07-13T00:12:49;6.23;;;2.00;;
2538;SDS011;1280;49.760;9.664;2023-07-13T00:15:25;6.70;;;2.03;;
2538;SDS011;1280;49.760;9.664;2023-07-13T00:17:54;6.57;;;2.23;;
2538;SDS011;1280;49.760;9.664;2023-07-13T00:20:24;8.00;;;2.03;;
2538;SDS011;1280;49.760;9.664;2023-07-13T00:22:54;6.10;;;2.30;;
2538;SDS011;1280;49.760;9.664;2023-07-13T00:25:27;5.40;;;2.00;;
2538;SDS011;1280;49.760;9.664;2023-07-13T00:27:55;5.43;;;2.50;;
2538;SDS011;1280;49.760;9.664;2023-07-13T00:30:26;4.93;;;2.03;;
2538;SDS011;1280;49.760;9.664;2023-07-13T00:33:02;4.60;;;1.90;;
2538;SDS011;1280;49.760;9.664;2023-07-13T00:35:45;5.47;;;2.00;;
2538;SDS011;1280;49.760;9.664;2023-07-13T00:38:16;5.73;;;2.53;;
2538;SDS011;1280;49.760;9.664;2023-07-13T00:40:45;6.30;;;2.00;;
2538;SDS011;1280;49.760;9.664;2023-07-13T00:43:16;5.10;;;2.03;;
2538;SDS011;1280;49.760;9.664;2023-07-13T00:48:46;8.37;;;2.60;;
2538;SDS011;1280;49.760;9.664;2023-07-13T00:51:25;5.77;;;2.17;;
2538;SDS011;1280;49.760;9.664;2023-07-13T00:54:01;5.63;;;2.43;;
2538;SDS011;1280;49.760;9.664;2023-07-13T00:56:32;6.80;;;2.30;;
2538;SDS011;1280;49.760;9.664;2023-07-13T00:59:04;5.23;;;2.47;;
2538;SDS011;1280;49.760;9.664;2023-07-13T01:01:40;5.83;;;1.87;;
2538;SDS011;1280;49.760;9.664;2023-07-13T01:04:11;5.83;;;1.80;;
2538;SDS011;1280;49.760;9.664;2023-07-13T01:06:40;5.63;;;2.30;;
2538;SDS011;1280;49.760;9.664;2023-07-13T01:09:12;5.40;;;1.97;;
2538;SDS011;1280;49.760;9.664;2023-07-13T01:11:44;6.07;;;2.30;;
2538;SDS011;1280;49.760;9.664;2023-07-13T01:14:12;8.17;;;2.10;;
2538;SDS011;1280;49.760;9.664;2023-07-13T01:16:44;5.87;;;2.40;;
2538;SDS011;1280;49.760;9.664;2023-07-13T01:19:18;7.37;;;2.00;;
2538;SDS011;1280;49.760;9.664;2023-07-13T01:22:04;6.13;;;2.20;;
2538;SDS011;1280;49.760;9.664;2023-07-13T01:24:35;5.43;;;2.10;;
2538;SDS011;1280;49.760;9.664;2023-07-13T01:27:04;6.00;;;2.10;;
2538;SDS011;1280;49.760;9.664;2023-07-13T01:29:35;7.43;;;2.10;;
2538;SDS011;1280;49.760;9.664;2023-07-13T01:32:09;7.20;;;2.27;;
2538;SDS011;1280;49.760;9.664;2023-07-13T01:34:49;4.93;;;1.93;;
2538;SDS011;1280;49.760;9.664;2023-07-13T01:37:22;8.17;;;2.30;;
2538;SDS011;1280;49.760;9.664;2023-07-13T01:39:51;6.10;;;2.57;;
2538;SDS011;1280;49.760;9.664;2023-07-13T01:42:21;6.23;;;1.93;;
2538;SDS011;1280;49.760;9.664;2023-07-13T01:44:53;5.97;;;2.37;;
2538;SDS011;1280;49.760;9.664;2023-07-13T01:47:21;4.53;;;1.90;;
2538;SDS011;1280;49.760;9.664;2023-07-13T01:49:54;5.80;;;2.13;;
2538;SDS011;1280;49.760;9.664;2023-07-13T01:52:28;5.83;;;1.90;;
2538;SDS011;1280;49.760;9.664;2023-07-13T01:54:58;5.83;;;1.90;;
2538;SDS011;1280;49.760;9.664;2023-07-13T01:57:26;5.50;;;2.07;;
2538;SDS011;1280;49.760;9.664;2023-07-13T01:59:57;9.53;;;2.37;;
2538;SDS011;1280;49.760;9.664;2023-07-13T02:02:25;5.80;;;2.00;;
2538;SDS011;1280;49.760;9.664;2023-07-13T02:04:53;7.00;;;2.50;;
2538;SDS011;1280;49.760;9.664;2023-07-13T02:07:22;4.40;;;1.67;;
2538;SDS011;1280;49.760;9.664;2023-07-13T02:09:53;5.00;;;2.00;;
2538;SDS011;1280;49.760;9.664;2023-07-13T02:12:21;4.77;;;2.00;;
2538;SDS011;1280;49.760;9.664;2023-07-13T02:14:53;6.03;;;2.27;;
2538;SDS011;1280;49.760;9.664;2023-07-13T02:17:25;5.23;;;2.27;;
2538;SDS011;1280;49.760;9.664;2023-07-13T02:19:58;5.70;;;2.00;;
2538;SDS011;1280;49.760;9.664;2023-07-13T02:22:28;9.30;;;2.33;;
2538;SDS011;1280;49.760;9.664;2023-07-13T02:24:57;11.20;;;2.20;;
2538;SDS011;1280;49.760;9.664;2023-07-13T02:27:32;9.87;;;2.30;;
2538;SDS011;1280;49.760;9.664;2023-07-13T02:30:00;11.40;;;2.70;;
2538;SDS011;1280;49.760;9.664;2023-07-13T02:32:30;7.80;;;2.00;;
2538;SDS011;1280;49.760;9.664;2023-07-13T02:34:58;8.10;;;2.30;;
2538;SDS011;1280;49.760;9.664;2023-07-13T02:37:28;7.47;;;2.50;;
2538;SDS011;1280;49.760;9.664;2023-07-13T02:39:58;7.17;;;2.10;;
2538;SDS011;1280;49.760;9.664;2023-07-13T02:42:29;5.03;;;2.10;;
2538;SDS011;1280;49.760;9.664;2023-07-13T02:45:00;5.60;;;2.17;;
2538;SDS011;1280;49.760;9.664;2023-07-13T02:47:28;6.70;;;2.13;;
2538;SDS011;1280;49.760;9.664;2023-07-13T02:49:58;4.93;;;2.17;;
2538;SDS011;1280;49.760;9.664;2023-07-13T02:52:29;6.70;;;1.90;;
2538;SDS011;1280;49.760;9.664;2023-07-13T02:54:58;5.47;;;2.23;;
2538;SDS011;1280;49.760;9.664;2023-07-13T02:57:28;7.67;;;2.00;;
2538;SDS011;1280;49.760;9.664;2023-07-13T02:59:58;8.60;;;2.50;;
2538;SDS011;1280;49.760;9.664;2023-07-13T03:02:33;6.80;;;2.63;;
2538;SDS011;1280;49.760;9.664;2023-07-13T03:05:06;6.73;;;2.30;;
2538;SDS011;1280;49.760;9.664;2023-07-13T03:07:43;7.70;;;2.50;;
2538;SDS011;1280;49.760;9.664;2023-07-13T03:10:12;6.10;;;2.87;;
2538;SDS011;1280;49.760;9.664;2023-07-13T03:12:46;5.70;;;2.50;;
2538;SDS011;1280;49.760;9.664;2023-07-13T03:15:20;6.83;;;2.63;;
2538;SDS011;1280;49.760;9.664;2023-07-13T03:17:50;6.37;;;2.47;;
2538;SDS011;1280;49.760;9.664;2023-07-13T03:20:19;7.23;;;2.47;;
2538;SDS011;1280;49.760;9.664;2023-07-13T03:22:48;4.87;;;1.97;;
2538;SDS011;1280;49.760;9.664;2023-07-13T03:25:19;5.57;;;2.40;;
2538;SDS011;1280;49.760;9.664;2023-07-13T03:27:48;8.87;;;2.50;;
2538;SDS011;1280;49.760;9.664;2023-07-13T03:30:16;6.90;;;2.50;;
2538;SDS011;1280;49.760;9.664;2023-07-13T03:32:49;7.07;;;2.60;;
2538;SDS011;1280;49.760;9.664;2023-07-13T03:35:17;6.60;;;2.67;;
2538;SDS011;1280;49.760;9.664;2023-07-13T03:37:45;7.20;;;2.67;;
2538;SDS011;1280;49.760;9.664;2023-07-13T03:40:24;5.97;;;2.60;;
2538;SDS011;1280;49.760;9.664;2023-07-13T03:43:00;5.60;;;2.40;;
2538;SDS011;1280;49.760;9.664;2023-07-13T03:45:34;7.43;;;2.43;;
2538;SDS011;1280;49.760;9.664;2023-07-13T03:48:15;6.90;;;2.00;;
2538;SDS011;1280;49.760;9.664;2023-07-13T03:50:50;7.90;;;2.90;;
2538;SDS011;1280;49.760;9.664;2023-07-13T03:53:18;11.13;;;3.23;;
2538;SDS011;1280;49.760;9.664;2023-07-13T03:55:47;10.73;;;4.00;;
2538;SDS011;1280;49.760;9.664;2023-07-13T03:58:24;9.93;;;2.90;;
2538;SDS011;1280;49.760;9.664;2023-07-13T04:01:04;6.60;;;2.50;;
2538;SDS011;1280;49.760;9.664;2023-07-13T04:03:33;5.20;;;2.60;;
2538;SDS011;1280;49.760;9.664;2023-07-13T04:06:04;8.33;;;2.50;;
2538;SDS011;1280;49.760;9.664;2023-07-13T04:08:34;5.67;;;2.87;;
2538;SDS011;1280;49.760;9.664;2023-07-13T04:11:06;6.90;;;2.70;;
2538;SDS011;1280;49.760;9.664;2023-07-13T04:13:37;6.00;;;2.50;;
2538;SDS011;1280;49.760;9.664;2023-07-13T04:16:08;6.03;;;2.53;;
2538;SDS011;1280;49.760;9.664;2023-07-13T04:18:46;7.43;;;3.33;;
2538;SDS011;1280;49.760;9.664;2023-07-13T04:21:15;5.50;;;2.70;;
2538;SDS011;1280;49.760;9.664;2023-07-13T04:23:45;7.00;;;2.40;;
2538;SDS011;1280;49.760;9.664;2023-07-13T04:26:15;6.50;;;2.80;;
2538;SDS011;1280;49.760;9.664;2023-07-13T04:28:43;7.10;;;2.87;;
2538;SDS011;1280;49.760;9.664;2023-07-13T04:31:15;5.30;;;2.40;;
2538;SDS011;1280;49.760;9.664;2023-07-13T04:33:44;5.70;;;2.43;;
2538;SDS011;1280;49.760;9.664;2023-07-13T04:36:14;6.10;;;2.30;;
2538;SDS011;1280;49.760;9.664;2023-07-13T04:38:42;5.10;;;2.50;;
2538;SDS011;1280;49.760;9.664;2023-07-13T04:41:11;7.80;;;2.67;;
2538;SDS011;1280;49.760;9.664;2023-07-13T04:43:42;5.90;;;2.10;;
2538;SDS011;1280;49.760;9.664;2023-07-13T04:46:11;6.23;;;2.63;;
2538;SDS011;1280;49.760;9.664;2023-07-13T04:48:41;6.50;;;2.70;;
2538;SDS011;1280;49.760;9.664;2023-07-13T04:51:10;6.37;;;2.80;;
2538;SDS011;1280;49.760;9.664;2023-07-13T04:53:38;10.50;;;2.30;;
2538;SDS011;1280;49.760;9.664;2023-07-13T04:56:06;7.40;;;2.40;;
2538;SDS011;1280;49.760;9.664;2023-07-13T04:58:34;6.57;;;2.40;;
2538;SDS011;1280;49.760;9.664;2023-07-13T05:01:04;7.13;;;2.50;;
2538;SDS011;1280;49.760;9.664;2023-07-13T05:03:38;6.47;;;2.60;;
2538;SDS011;1280;49.760;9.664;2023-07-13T05:06:07;7.13;;;2.17;;
2538;SDS011;1280;49.760;9.664;2023-07-13T05:08:37;5.70;;;2.67;;
2538;SDS011;1280;49.760;9.664;2023-07-13T05:11:05;5.17;;;2.33;;
2538;SDS011;1280;49.760;9.664;2023-07-13T05:13:34;6.43;;;2.73;;
2538;SDS011;1280;49.760;9.664;2023-07-13T05:16:04;6.23;;;2.80;;
2538;SDS011;1280;49.760;9.664;2023-07-13T05:18:34;8.03;;;2.70;;
2538;SDS011;1280;49.760;9.664;2023-07-13T05:21:03;7.27;;;2.40;;
2538;SDS011;1280;49.760;9.664;2023-07-13T05:23:32;6.30;;;2.40;;
2538;SDS011;1280;49.760;9.664;2023-07-13T05:26:01;5.90;;;2.20;;
2538;SDS011;1280;49.760;9.664;2023-07-13T05:28:34;5.97;;;2.33;;
2538;SDS011;1280;49.760;9.664;2023-07-13T05:31:04;9.10;;;2.53;;
2538;SDS011;1280;49.760;9.664;2023-07-13T05:33:32;11.20;;;2.87;;
2538;SDS011;1280;49.760;9.664;2023-07-13T05:36:00;6.90;;;2.57;;
2538;SDS011;1280;49.760;9.664;2023-07-13T05:38:28;6.37;;;2.60;;
2538;SDS011;1280;49.760;9.664;2023-07-13T05:40:56;10.60;;;3.00;;
2538;SDS011;1280;49.760;9.664;2023-07-13T05:43:27;9.50;;;2.50;;
2538;SDS011;1280;49.760;9.664;2023-07-13T05:45:55;6.77;;;2.60;;
2538;SDS011;1280;49.760;9.664;2023-07-13T05:48:25;6.90;;;1.93;;
2538;SDS011;1280;49.760;9.664;2023-07-13T05:50:53;9.03;;;2.00;;
2538;SDS011;1280;49.760;9.664;2023-07-13T05:53:21;6.10;;;2.13;;
2538;SDS011;1280;49.760;9.664;2023-07-13T05:55:49;5.50;;;1.93;;
2538;SDS011;1280;49.760;9.664;2023-07-13T05:58:22;8.13;;;2.10;;
2538;SDS011;1280;49.760;9.664;2023-07-13T06:00:58;6.17;;;1.77;;
2538;SDS011;1280;49.760;9.664;2023-07-13T06:03:29;6.00;;;2.10;;
2538;SDS011;1280;49.760;9.664;2023-07-13T06:05:58;6.27;;;1.87;;
2538;SDS011;1280;49.760;9.664;2023-07-13T06:08:27;7.97;;;1.93;;
2538;SDS011;1280;49.760;9.664;2023-07-13T06:11:04;6.57;;;1.77;;
2538;SDS011;1280;49.760;9.664;2023-07-13T06:13:34;5.83;;;1.67;;
2538;SDS011;1280;49.760;9.664;2023-07-13T06:16:04;7.10;;;2.13;;
2538;SDS011;1280;49.760;9.664;2023-07-13T06:18:34;6.63;;;1.40;;
2538;SDS011;1280;49.760;9.664;2023-07-13T06:21:05;5.60;;;1.70;;
2538;SDS011;1280;49.760;9.664;2023-07-13T06:23:37;6.50;;;2.00;;
2538;SDS011;1280;49.760;9.664;2023-07-13T06:26:11;5.30;;;1.47;;
2538;SDS011;1280;49.760;9.664;2023-07-13T06:28:39;6.00;;;1.50;;
2538;SDS011;1280;49.760;9.664;2023-07-13T06:31:09;6.93;;;1.60;;
2538;SDS011;1280;49.760;9.664;2023-07-13T06:33:41;6.23;;;1.47;;
2538;SDS011;1280;49.760;9.664;2023-07-13T06:36:20;8.87;;;1.60;;
2538;SDS011;1280;49.760;9.664;2023-07-13T06:38:49;5.07;;;1.57;;
2538;SDS011;1280;49.760;9.664;2023-07-13T06:41:17;7.07;;;1.40;;
2538;SDS011;1280;49.760;9.664;2023-07-13T06:44:23;5.30;;;1.67;;
2538;SDS011;1280;49.760;9.664;2023-07-13T06:46:34;5.10;;;1.60;;
2538;SDS011;1280;49.760;9.664;2023-07-13T06:49:07;5.10;;;1.60;;
2538;SDS011;1280;49.760;9.664;2023-07-13T06:51:36;10.80;;;2.37;;
2538;SDS011;1280;49.760;9.664;2023-07-13T06:54:03;5.00;;;1.63;;
2538;SDS011;1280;49.760;9.664;2023-07-13T07:00:17;5.50;;;1.50;;
2538;SDS011;1280;49.760;9.664;2023-07-13T07:02:45;5.13;;;1.50;;
2538;SDS011;1280;49.760;9.664;2023-07-13T07:05:14;5.90;;;1.80;;
2538;SDS011;1280;49.760;9.664;2023-07-13T07:07:47;4.40;;;1.10;;
2538;SDS011;1280;49.760;9.664;2023-07-13T07:10:15;7.00;;;2.00;;
2538;SDS011;1280;49.760;9.664;2023-07-13T07:12:43;8.43;;;1.90;;
2538;SDS011;1280;49.760;9.664;2023-07-13T07:15:12;11.90;;;1.97;;
2538;SDS011;1280;49.760;9.664;2023-07-13T07:17:40;4.50;;;1.30;;
2538;SDS011;1280;49.760;9.664;2023-07-13T07:20:09;5.50;;;1.57;;
2538;SDS011;1280;49.760;9.664;2023-07-13T07:22:39;7.43;;;1.60;;
2538;SDS011;1280;49.760;9.664;2023-07-13T07:25:07;7.70;;;1.63;;
2538;SDS011;1280;49.760;9.664;2023-07-13T07:27:35;6.03;;;1.47;;
2538;SDS011;1280;49.760;9.664;2023-07-13T07:30:06;6.20;;;1.43;;
2538;SDS011;1280;49.760;9.664;2023-07-13T07:32:38;5.83;;;1.30;;
2538;SDS011;1280;49.760;9.664;2023-07-13T07:35:09;5.30;;;1.40;;
2538;SDS011;1280;49.760;9.664;2023-07-13T07:40:24;6.37;;;1.63;;
2538;SDS011;1280;49.760;9.664;2023-07-13T07:42:55;5.40;;;1.53;;
2538;SDS011;1280;49.760;9.664;2023-07-13T07:45:23;6.90;;;1.80;;
2538;SDS011;1280;49.760;9.664;2023-07-13T07:47:51;6.10;;;1.80;;
2538;SDS011;1280;49.760;9.664;2023-07-13T07:50:21;5.93;;;1.70;;
2538;SDS011;1280;49.760;9.664;2023-07-13T07:52:49;8.13;;;1.50;;
2538;SDS011;1280;49.760;9.664;2023-07-13T07:55:18;5.97;;;1.73;;
2538;SDS011;1280;49.760;9.664;2023-07-13T07:57:49;6.07;;;1.87;;
2538;SDS011;1280;49.760;9.664;2023-07-13T08:00:20;5.70;;;1.50;;
2538;SDS011;1280;49.760;9.664;2023-07-13T08:02:51;6.20;;;1.70;;
2538;SDS011;1280;49.760;9.664;2023-07-13T08:05:22;4.73;;;1.17;;
2538;SDS011;1280;49.760;9.664;2023-07-13T08:08:08;6.60;;;1.67;;
2538;SDS011;1280;49.760;9.664;2023-07-13T08:10:37;7.97;;;1.93;;
2538;SDS011;1280;49.760;9.664;2023-07-13T08:13:06;6.30;;;1.93;;
2538;SDS011;1280;49.760;9.664;2023-07-13T08:15:37;9.30;;;1.90;;
2538;SDS011;1280;49.760;9.664;2023-07-13T08:18:06;6.17;;;1.63;;
2538;SDS011;1280;49.760;9.664;2023-07-13T08:20:36;5.43;;;1.67;;
2538;SDS011;1280;49.760;9.664;2023-07-13T08:23:09;5.33;;;1.80;;
2538;SDS011;1280;49.760;9.664;2023-07-13T08:25:39;5.73;;;1.63;;
2538;SDS011;1280;49.760;9.664;2023-07-13T08:28:08;8.03;;;1.53;;
2538;SDS011;1280;49.760;9.664;2023-07-13T08:30:36;6.57;;;1.90;;
2538;SDS011;1280;49.760;9.664;2023-07-13T08:33:03;5.47;;;1.97;;
2538;SDS011;1280;49.760;9.664;2023-07-13T08:35:32;5.83;;;1.73;;
2538;SDS011;1280;49.760;9.664;2023-07-13T08:37:59;6.60;;;1.67;;
2538;SDS011;1280;49.760;9.664;2023-07-13T08:40:28;6.13;;;1.57;;
2538;SDS011;1280;49.760;9.664;2023-07-13T08:42:57;5.50;;;1.80;;
2538;SDS011;1280;49.760;9.664;2023-07-13T08:45:28;8.27;;;1.70;;
2538;SDS011;1280;49.760;9.664;2023-07-13T08:48:03;6.67;;;1.23;;
2538;SDS011;1280;49.760;9.664;2023-07-13T08:50:49;7.20;;;1.80;;
2538;SDS011;1280;49.760;9.664;2023-07-13T08:53:27;7.60;;;2.00;;
2538;SDS011;1280;49.760;9.664;2023-07-13T08:56:01;6.43;;;1.50;;
2538;SDS011;1280;49.760;9.664;2023-07-13T08:58:30;6.07;;;1.70;;
2538;SDS011;1280;49.760;9.664;2023-07-13T09:01:02;6.37;;;1.80;;
2538;SDS011;1280;49.760;9.664;2023-07-13T09:03:40;4.93;;;1.43;;
2538;SDS011;1280;49.760;9.664;2023-07-13T09:06:17;5.20;;;1.70;;
2538;SDS011;1280;49.760;9.664;2023-07-13T09:08:49;7.90;;;1.60;;
2538;SDS011;1280;49.760;9.664;2023-07-13T09:11:24;6.37;;;1.70;;
2538;SDS011;1280;49.760;9.664;2023-07-13T09:14:22;5.90;;;1.73;;
2538;SDS011;1280;49.760;9.664;2023-07-13T09:17:01;5.00;;;1.50;;
2538;SDS011;1280;49.760;9.664;2023-07-13T09:19:32;5.90;;;1.37;;
2538;SDS011;1280;49.760;9.664;2023-07-13T09:22:02;7.93;;;1.87;;
2538;SDS011;1280;49.760;9.664;2023-07-13T09:24:36;8.80;;;1.80;;
2538;SDS011;1280;49.760;9.664;2023-07-13T09:27:09;6.30;;;1.80;;
2538;SDS011;1280;49.760;9.664;2023-07-13T09:29:47;7.27;;;1.97;;
2538;SDS011;1280;49.760;9.664;2023-07-13T09:32:18;6.33;;;1.47;;
2538;SDS011;1280;49.760;9.664;2023-07-13T09:34:51;8.93;;;1.90;;
2538;SDS011;1280;49.760;9.664;2023-07-13T09:37:21;6.63;;;1.47;;
2538;SDS011;1280;49.760;9.664;2023-07-13T09:39:59;7.47;;;1.47;;
2538;SDS011;1280;49.760;9.664;2023-07-13T09:42:31;7.30;;;1.70;;
2538;SDS011;1280;49.760;9.664;2023-07-13T09:45:02;8.47;;;1.57;;
2538;SDS011;1280;49.760;9.664;2023-07-13T09:47:32;5.00;;;1.53;;
2538;SDS011;1280;49.760;9.664;2023-07-13T09:50:09;4.63;;;1.20;;
2538;SDS011;1280;49.760;9.664;2023-07-13T09:52:43;9.60;;;1.80;;
2538;SDS011;1280;49.760;9.664;2023-07-13T09:55:23;5.50;;;1.23;;
2538;SDS011;1280;49.760;9.664;2023-07-13T09:57:52;8.47;;;2.00;;
2538;SDS011;1280;49.760;9.664;2023-07-13T10:00:23;5.77;;;1.43;;
2538;SDS011;1280;49.760;9.664;2023-07-13T10:03:00;9.10;;;1.80;;
2538;SDS011;1280;49.760;9.664;2023-07-13T10:05:40;6.43;;;1.83;;
2538;SDS011;1280;49.760;9.664;2023-07-13T10:08:16;7.00;;;1.97;;
2538;SDS011;1280;49.760;9.664;2023-07-13T10:10:52;4.77;;;1.50;;
2538;SDS011;1280;49.760;9.664;2023-07-13T10:16:09;5.40;;;1.40;;
2538;SDS011;1280;49.760;9.664;2023-07-13T10:18:39;6.70;;;1.90;;
2538;SDS011;1280;49.760;9.664;2023-07-13T10:21:11;11.70;;;1.90;;
2538;SDS011;1280;49.760;9.664;2023-07-13T10:23:46;6.57;;;1.40;;
2538;SDS011;1280;49.760;9.664;2023-07-13T10:26:17;7.53;;;1.63;;
2538;SDS011;1280;49.760;9.664;2023-07-13T10:28:51;7.77;;;1.50;;
2538;SDS011;1280;49.760;9.664;2023-07-13T10:31:23;4.10;;;1.43;;
2538;SDS011;1280;49.760;9.664;2023-07-13T10:33:51;5.60;;;1.53;;
2538;SDS011;1280;49.760;9.664;2023-07-13T10:36:22;6.23;;;1.50;;
2538;SDS011;1280;49.760;9.664;2023-07-13T10:38:57;10.20;;;2.00;;
2538;SDS011;1280;49.760;9.664;2023-07-13T10:41:29;8.10;;;1.80;;
2538;SDS011;1280;49.760;9.664;2023-07-13T10:44:01;4.83;;;1.50;;
2538;SDS011;1280;49.760;9.664;2023-07-13T10:46:32;7.60;;;1.97;;
2538;SDS011;1280;49.760;9.664;2023-07-13T10:49:01;5.80;;;1.90;;
2538;SDS011;1280;49.760;9.664;2023-07-13T10:51:32;6.63;;;1.70;;
2538;SDS011;1280;49.760;9.664;2023-07-13T10:54:11;11.30;;;1.87;;
2538;SDS011;1280;49.760;9.664;2023-07-13T10:56:46;6.63;;;1.50;;
2538;SDS011;1280;49.760;9.664;2023-07-13T10:59:18;6.60;;;1.60;;
2538;SDS011;1280;49.760;9.664;2023-07-13T11:01:54;8.20;;;1.73;;
2538;SDS011;1280;49.760;9.664;2023-07-13T11:04:25;10.37;;;2.10;;
2538;SDS011;1280;49.760;9.664;2023-07-13T11:06:56;13.33;;;1.80;;
2538;SDS011;1280;49.760;9.664;2023-07-13T11:09:33;5.63;;;1.90;;
2538;SDS011;1280;49.760;9.664;2023-07-13T11:12:08;9.10;;;1.37;;
2538;SDS011;1280;49.760;9.664;2023-07-13T11:15:01;6.83;;;1.30;;
2538;SDS011;1280;49.760;9.664;2023-07-13T11:17:36;7.60;;;1.77;;
2538;SDS011;1280;49.760;9.664;2023-07-13T11:20:21;6.43;;;1.57;;
2538;SDS011;1280;49.760;9.664;2023-07-13T11:23:09;7.47;;;1.90;;
2538;SDS011;1280;49.760;9.664;2023-07-13T11:25:53;5.67;;;1.50;;
2538;SDS011;1280;49.760;9.664;2023-07-13T11:28:22;7.27;;;1.43;;
2538;SDS011;1280;49.760;9.664;2023-07-13T11:30:59;5.17;;;1.50;;
2538;SDS011;1280;49.760;9.664;2023-07-13T11:33:51;12.07;;;1.93;;
2538;SDS011;1280;49.760;9.664;2023-07-13T11:36:30;5.10;;;1.73;;
2538;SDS011;1280;49.760;9.664;2023-07-13T11:39:04;4.70;;;1.73;;
2538;SDS011;1280;49.760;9.664;2023-07-13T11:41:43;7.30;;;1.97;;
2538;SDS011;1280;49.760;9.664;2023-07-13T11:44:16;5.77;;;1.30;;
2538;SDS011;1280;49.760;9.664;2023-07-13T11:46:46;5.53;;;1.70;;
2538;SDS011;1280;49.760;9.664;2023-07-13T11:49:20;10.83;;;1.60;;
2538;SDS011;1280;49.760;9.664;2023-07-13T11:51:50;5.27;;;1.53;;
2538;SDS011;1280;49.760;9.664;2023-07-13T11:54:25;8.87;;;1.77;;
2538;SDS011;1280;49.760;9.664;2023-07-13T11:56:55;7.00;;;1.50;;
2538;SDS011;1280;49.760;9.664;2023-07-13T11:59:27;5.23;;;1.40;;
2538;SDS011;1280;49.760;9.664;2023-07-13T12:01:58;5.00;;;1.90;;
2538;SDS011;1280;49.760;9.664;2023-07-13T12:04:29;5.03;;;1.53;;
2538;SDS011;1280;49.760;9.664;2023-07-13T12:07:03;5.70;;;1.70;;
2538;SDS011;1280;49.760;9.664;2023-07-13T12:09:35;6.70;;;1.70;;
2538;SDS011;1280;49.760;9.664;2023-07-13T12:12:08;6.37;;;1.97;;
2538;SDS011;1280;49.760;9.664;2023-07-13T12:14:39;8.90;;;2.00;;
2538;SDS011;1280;49.760;9.664;2023-07-13T12:17:09;6.83;;;1.53;;
2538;SDS011;1280;49.760;9.664;2023-07-13T12:19:44;8.80;;;2.20;;
2538;SDS011;1280;49.760;9.664;2023-07-13T12:22:12;6.17;;;1.47;;
2538;SDS011;1280;49.760;9.664;2023-07-13T12:24:42;4.90;;;1.63;;
2538;SDS011;1280;49.760;9.664;2023-07-13T12:27:17;5.03;;;1.60;;
2538;SDS011;1280;49.760;9.664;2023-07-13T12:29:49;6.80;;;1.70;;
2538;SDS011;1280;49.760;9.664;2023-07-13T12:32:20;4.57;;;1.60;;
2538;SDS011;1280;49.760;9.664;2023-07-13T12:34:54;6.10;;;1.53;;
2538;SDS011;1280;49.760;9.664;2023-07-13T12:37:23;6.03;;;1.60;;
2538;SDS011;1280;49.760;9.664;2023-07-13T12:39:51;4.93;;;1.50;;
2538;SDS011;1280;49.760;9.664;2023-07-13T12:42:21;8.20;;;1.80;;
2538;SDS011;1280;49.760;9.664;2023-07-13T12:44:54;7.40;;;1.50;;
2538;SDS011;1280;49.760;9.664;2023-07-13T12:47:24;4.97;;;1.73;;
2538;SDS011;1280;49.760;9.664;2023-07-13T12:49:55;10.60;;;1.87;;
2538;SDS011;1280;49.760;9.664;2023-07-13T12:52:28;4.90;;;1.87;;
2538;SDS011;1280;49.760;9.664;2023-07-13T12:55:02;7.23;;;2.10;;
2538;SDS011;1280;49.760;9.664;2023-07-13T12:57:38;7.30;;;1.77;;
2538;SDS011;1280;49.760;9.664;2023-07-13T13:00:19;5.53;;;1.47;;
2538;SDS011;1280;49.760;9.664;2023-07-13T13:02:52;6.20;;;1.70;;
2538;SDS011;1280;49.760;9.664;2023-07-13T13:05:42;6.70;;;2.03;;
2538;SDS011;1280;49.760;9.664;2023-07-13T13:08:11;7.20;;;1.70;;
2538;SDS011;1280;49.760;9.664;2023-07-13T13:10:40;6.30;;;1.87;;
2538;SDS011;1280;49.760;9.664;2023-07-13T13:13:08;6.47;;;2.07;;
2538;SDS011;1280;49.760;9.664;2023-07-13T13:15:36;6.00;;;1.83;;
2538;SDS011;1280;49.760;9.664;2023-07-13T13:18:08;7.03;;;1.47;;
2538;SDS011;1280;49.760;9.664;2023-07-13T13:20:43;9.07;;;2.07;;
2538;SDS011;1280;49.760;9.664;2023-07-13T13:23:12;7.63;;;2.40;;
2538;SDS011;1280;49.760;9.664;2023-07-13T13:25:44;4.70;;;1.50;;
2538;SDS011;1280;49.760;9.664;2023-07-13T13:28:14;6.50;;;1.80;;
2538;SDS011;1280;49.760;9.664;2023-07-13T13:30:44;4.20;;;1.20;;
2538;SDS011;1280;49.760;9.664;2023-07-13T13:33:14;6.73;;;1.30;;
2538;SDS011;1280;49.760;9.664;2023-07-13T13:35:44;5.23;;;1.70;;
2538;SDS011;1280;49.760;9.664;2023-07-13T13:38:12;7.60;;;2.13;;
2538;SDS011;1280;49.760;9.664;2023-07-13T13:40:42;5.97;;;1.60;;
2538;SDS011;1280;49.760;9.664;2023-07-13T13:43:14;7.03;;;1.70;;
2538;SDS011;1280;49.760;9.664;2023-07-13T13:45:44;7.57;;;1.80;;
2538;SDS011;1280;49.760;9.664;2023-07-13T13:48:14;7.83;;;1.90;;
2538;SDS011;1280;49.760;9.664;2023-07-13T13:50:45;6.03;;;2.00;;
2538;SDS011;1280;49.760;9.664;2023-07-13T13:53:14;5.83;;;1.73;;
2538;SDS011;1280;49.760;9.664;2023-07-13T13:55:42;5.70;;;1.60;;
2538;SDS011;1280;49.760;9.664;2023-07-13T13:58:10;5.37;;;1.63;;
2538;SDS011;1280;49.760;9.664;2023-07-13T14:00:39;5.17;;;1.80;;
2538;SDS011;1280;49.760;9.664;2023-07-13T14:03:10;6.93;;;1.80;;
2538;SDS011;1280;49.760;9.664;2023-07-13T14:05:42;8.10;;;2.30;;
2538;SDS011;1280;49.760;9.664;2023-07-13T14:08:13;6.10;;;1.60;;
2538;SDS011;1280;49.760;9.664;2023-07-13T14:10:43;5.60;;;1.63;;
2538;SDS011;1280;49.760;9.664;2023-07-13T14:13:15;5.10;;;1.60;;
2538;SDS011;1280;49.760;9.664;2023-07-13T14:15:45;5.87;;;1.90;;
2538;SDS011;1280;49.760;9.664;2023-07-13T14:18:14;6.53;;;1.80;;
2538;SDS011;1280;49.760;9.664;2023-07-13T14:20:44;5.63;;;2.07;;
2538;SDS011;1280;49.760;9.664;2023-07-13T14:23:15;6.63;;;1.67;;
2538;SDS011;1280;49.760;9.664;2023-07-13T14:25:45;9.33;;;2.07;;
2538;SDS011;1280;49.760;9.664;2023-07-13T14:28:20;6.20;;;1.80;;
2538;SDS011;1280;49.760;9.664;2023-07-13T14:30:50;8.30;;;1.77;;
2538;SDS011;1280;49.760;9.664;2023-07-13T14:33:20;7.87;;;1.93;;
2538;SDS011;1280;49.760;9.664;2023-07-13T14:35:49;6.30;;;2.70;;
2538;SDS011;1280;49.760;9.664;2023-07-13T14:38:20;9.77;;;2.10;;
2538;SDS011;1280;49.760;9.664;2023-07-13T14:40:48;7.03;;;2.30;;
2538;SDS011;1280;49.760;9.664;2023-07-13T14:43:16;6.30;;;2.00;;
2538;SDS011;1280;49.760;9.664;2023-07-13T14:45:46;5.97;;;1.87;;
2538;SDS011;1280;49.760;9.664;2023-07-13T14:48:16;5.13;;;1.60;;
2538;SDS011;1280;49.760;9.664;2023-07-13T14:50:46;7.10;;;1.87;;
2538;SDS011;1280;49.760;9.664;2023-07-13T14:53:15;5.93;;;1.53;;
2538;SDS011;1280;49.760;9.664;2023-07-13T14:55:44;6.10;;;1.63;;
2538;SDS011;1280;49.760;9.664;2023-07-13T14:58:12;6.30;;;1.83;;
2538;SDS011;1280;49.760;9.664;2023-07-13T15:00:41;7.90;;;1.70;;
2538;SDS011;1280;49.760;9.664;2023-07-13T15:03:13;5.13;;;1.93;;
2538;SDS011;1280;49.760;9.664;2023-07-13T15:05:46;5.90;;;1.70;;
2538;SDS011;1280;49.760;9.664;2023-07-13T15:08:15;4.43;;;1.67;;
2538;SDS011;1280;49.760;9.664;2023-07-13T15:10:44;7.03;;;1.60;;
2538;SDS011;1280;49.760;9.664;2023-07-13T15:13:13;7.80;;;2.00;;
2538;SDS011;1280;49.760;9.664;2023-07-13T15:15:43;8.23;;;1.80;;
2538;SDS011;1280;49.760;9.664;2023-07-13T15:18:14;6.83;;;1.90;;
2538;SDS011;1280;49.760;9.664;2023-07-13T15:20:44;6.00;;;1.70;;
2538;SDS011;1280;49.760;9.664;2023-07-13T15:23:13;5.93;;;1.77;;
2538;SDS011;1280;49.760;9.664;2023-07-13T15:25:43;9.60;;;2.00;;
2538;SDS011;1280;49.760;9.664;2023-07-13T15:28:13;6.13;;;1.43;;
2538;SDS011;1280;49.760;9.664;2023-07-13T15:30:42;6.70;;;1.93;;
2538;SDS011;1280;49.760;9.664;2023-07-13T15:33:12;6.80;;;1.57;;
2538;SDS011;1280;49.760;9.664;2023-07-13T15:35:43;8.83;;;1.60;;
2538;SDS011;1280;49.760;9.664;2023-07-13T15:38:13;4.60;;;1.43;;
2538;SDS011;1280;49.760;9.664;2023-07-13T15:40:42;5.73;;;1.80;;
2538;SDS011;1280;49.760;9.664;2023-07-13T15:43:12;6.37;;;1.80;;
2538;SDS011;1280;49.760;9.664;2023-07-13T15:45:41;6.93;;;1.60;;
2538;SDS011;1280;49.760;9.664;2023-07-13T15:48:13;6.80;;;2.07;;
2538;SDS011;1280;49.760;9.664;2023-07-13T15:50:44;7.80;;;1.63;;
2538;SDS011;1280;49.760;9.664;2023-07-13T15:53:15;5.53;;;1.60;;